sensor_id;sensor_type;location;lat;lon;timestamp;P1;P2;P0
70436;PMS5003;57877;39.750;-104.894;2022-07-22T00:01:01;2;1;
70436;PMS5003;57877;39.750;-104.894;2022-07-22T00:03:26;2;2;
70436;PMS5003;57877;39.750;-104.894;2022-07-22T00:05:51;0;0;
70436;PMS5003;57877;39.750;-104.894;2022-07-22T00:08:16;0;0;
70436;PMS5003;57877;39.750;-104.894;2022-07-22T00:10:41;1;1;
70436;PMS5003;57877;39.750;-104.894;2022-07-22T00:13:07;0;0;
70436;PMS5003;57877;39.750;-104.894;2022-07-22T00:15:31;0;0;
70436;PMS5003;57877;39.750;-104.894;2022-07-22T00:17:56;0;0;
70436;PMS5003;57877;39.750;-104.894;2022-07-22T00:20:21;0;0;
70436;PMS5003;57877;39.750;-104.894;2022-07-22T00:22:48;1;1;
70436;PMS5003;57877;39.750;-104.894;2022-07-22T00:25:12;2;2;
70436;PMS5003;57877;39.750;-104.894;2022-07-22T00:27:38;1;1;
70436;PMS5003;57877;39.750;-104.894;2022-07-22T00:30:03;1;1;
70436;PMS5003;57877;39.750;-104.894;2022-07-22T00:32:28;2;2;
70436;PMS5003;57877;39.750;-104.894;2022-07-22T00:34:53;1;1;
70436;PMS5003;57877;39.750;-104.894;2022-07-22T00:37:18;2;2;
70436;PMS5003;57877;39.750;-104.894;2022-07-22T00:39:43;0;0;
70436;PMS5003;57877;39.750;-104.894;2022-07-22T00:42:08;0;0;
70436;PMS5003;57877;39.750;-104.894;2022-07-22T00:44:33;1;0;
70436;PMS5003;57877;39.750;-104.894;2022-07-22T00:46:58;0;0;
70436;PMS5003;57877;39.750;-104.894;2022-07-22T00:49:23;0;0;
70436;PMS5003;57877;39.750;-104.894;2022-07-22T00:51:48;0;0;
70436;PMS5003;57877;39.750;-104.894;2022-07-22T00:54:14;0;0;
70436;PMS5003;57877;39.750;-104.894;2022-07-22T00:56:39;0;0;
70436;PMS5003;57877;39.750;-104.894;2022-07-22T00:59:05;0;0;
70436;PMS5003;57877;39.750;-104.894;2022-07-22T01:01:30;0;0;
70436;PMS5003;57877;39.750;-104.894;2022-07-22T01:03:56;0;0;
70436;PMS5003;57877;39.750;-104.894;2022-07-22T01:06:21;0;0;
70436;PMS5003;57877;39.750;-104.894;2022-07-22T01:08:47;0;0;
70436;PMS5003;57877;39.750;-104.894;2022-07-22T01:11:13;0;0;
70436;PMS5003;57877;39.750;-104.894;2022-07-22T01:13:37;0;0;
70436;PMS5003;57877;39.750;-104.894;2022-07-22T01:16:02;0;0;
70436;PMS5003;57877;39.750;-104.894;2022-07-22T01:18:27;0;0;
70436;PMS5003;57877;39.750;-104.894;2022-07-22T01:20:52;0;0;
70436;PMS5003;57877;39.750;-104.894;2022-07-22T01:23:17;0;0;
70436;PMS5003;57877;39.750;-104.894;2022-07-22T01:25:42;0;0;
70436;PMS5003;57877;39.750;-104.894;2022-07-22T01:28:07;0;0;
70436;PMS5003;57877;39.750;-104.894;2022-07-22T01:30:32;0;0;
70436;PMS5003;57877;39.750;-104.894;2022-07-22T01:32:57;0;0;
70436;PMS5003;57877;39.750;-104.894;2022-07-22T01:35:22;0;0;
70436;PMS5003;57877;39.750;-104.894;2022-07-22T01:37:47;0;0;
70436;PMS5003;57877;39.750;-104.894;2022-07-22T01:40:12;0;0;
70436;PMS5003;57877;39.750;-104.894;2022-07-22T01:42:38;0;0;
70436;PMS5003;57877;39.750;-104.894;2022-07-22T01:45:03;0;0;
70436;PMS5003;57877;39.750;-104.894;2022-07-22T01:47:28;0;0;
70436;PMS5003;57877;39.750;-104.894;2022-07-22T01:49:53;0;0;
70436;PMS5003;57877;39.750;-104.894;2022-07-22T01:52:18;0;0;
70436;PMS5003;57877;39.750;-104.894;2022-07-22T01:54:43;0;0;
70436;PMS5003;57877;39.750;-104.894;2022-07-22T01:57:08;0;0;
70436;PMS5003;57877;39.750;-104.894;2022-07-22T01:59:33;0;0;
70436;PMS5003;57877;39.750;-104.894;2022-07-22T02:01:58;0;0;
70436;PMS5003;57877;39.750;-104.894;2022-07-22T02:04:23;0;0;
70436;PMS5003;57877;39.750;-104.894;2022-07-22T02:06:48;0;0;
70436;PMS5003;57877;39.750;-104.894;2022-07-22T02:09:13;0;0;
70436;PMS5003;57877;39.750;-104.894;2022-07-22T02:11:38;0;0;
70436;PMS5003;57877;39.750;-104.894;2022-07-22T02:14:04;0;0;
70436;PMS5003;57877;39.750;-104.894;2022-07-22T02:16:29;0;0;
70436;PMS5003;57877;39.750;-104.894;2022-07-22T02:18:55;0;0;
70436;PMS5003;57877;39.750;-104.894;2022-07-22T02:21:19;0;0;
70436;PMS5003;57877;39.750;-104.894;2022-07-22T02:23:45;0;0;
70436;PMS5003;57877;39.750;-104.894;2022-07-22T02:26:10;0;0;
70436;PMS5003;57877;39.750;-104.894;2022-07-22T02:28:35;0;0;
70436;PMS5003;57877;39.750;-104.894;2022-07-22T02:31:00;0;0;
70436;PMS5003;57877;39.750;-104.894;2022-07-22T02:33:25;0;0;
70436;PMS5003;57877;39.750;-104.894;2022-07-22T02:35:50;3;3;
70436;PMS5003;57877;39.750;-104.894;2022-07-22T02:38:15;2;2;
70436;PMS5003;57877;39.750;-104.894;2022-07-22T02:40:40;2;2;
70436;PMS5003;57877;39.750;-104.894;2022-07-22T02:43:05;2;2;
70436;PMS5003;57877;39.750;-104.894;2022-07-22T02:45:30;24;24;
70436;PMS5003;57877;39.750;-104.894;2022-07-22T02:47:55;19;19;
70436;PMS5003;57877;39.750;-104.894;2022-07-22T02:50:21;12;11;
70436;PMS5003;57877;39.750;-104.894;2022-07-22T02:52:45;8;8;
70436;PMS5003;57877;39.750;-104.894;2022-07-22T02:55:10;6;6;
70436;PMS5003;57877;39.750;-104.894;2022-07-22T02:57:36;4;4;
70436;PMS5003;57877;39.750;-104.894;2022-07-22T03:00:03;6;6;
70436;PMS5003;57877;39.750;-104.894;2022-07-22T03:02:28;3;2;
70436;PMS5003;57877;39.750;-104.894;2022-07-22T03:04:54;0;0;
70436;PMS5003;57877;39.750;-104.894;2022-07-22T03:07:19;1;1;
70436;PMS5003;57877;39.750;-104.894;2022-07-22T03:09:45;1;1;
70436;PMS5003;57877;39.750;-104.894;2022-07-22T03:12:10;0;0;
70436;PMS5003;57877;39.750;-104.894;2022-07-22T03:14:35;4;3;
70436;PMS5003;57877;39.750;-104.894;2022-07-22T03:17:01;3;3;
70436;PMS5003;57877;39.750;-104.894;2022-07-22T03:19:26;5;5;
70436;PMS5003;57877;39.750;-104.894;2022-07-22T03:21:51;6;6;
70436;PMS5003;57877;39.750;-104.894;2022-07-22T03:24:16;5;5;
70436;PMS5003;57877;39.750;-104.894;2022-07-22T03:26:41;5;5;
70436;PMS5003;57877;39.750;-104.894;2022-07-22T03:29:07;7;7;
70436;PMS5003;57877;39.750;-104.894;2022-07-22T03:31:33;11;10;
70436;PMS5003;57877;39.750;-104.894;2022-07-22T03:33:59;7;7;
70436;PMS5003;57877;39.750;-104.894;2022-07-22T03:36:25;7;7;
70436;PMS5003;57877;39.750;-104.894;2022-07-22T03:38:51;7;7;
70436;PMS5003;57877;39.750;-104.894;2022-07-22T03:41:17;6;6;
70436;PMS5003;57877;39.750;-104.894;2022-07-22T03:43:43;8;8;
70436;PMS5003;57877;39.750;-104.894;2022-07-22T03:46:09;6;6;
70436;PMS5003;57877;39.750;-104.894;2022-07-22T03:48:35;7;7;
70436;PMS5003;57877;39.750;-104.894;2022-07-22T03:51:00;6;6;
70436;PMS5003;57877;39.750;-104.894;2022-07-22T03:53:26;5;5;
70436;PMS5003;57877;39.750;-104.894;2022-07-22T03:55:52;7;7;
70436;PMS5003;57877;39.750;-104.894;2022-07-22T03:58:18;5;5;
70436;PMS5003;57877;39.750;-104.894;2022-07-22T04:00:44;7;6;
70436;PMS5003;57877;39.750;-104.894;2022-07-22T04:03:10;6;5;
70436;PMS5003;57877;39.750;-104.894;2022-07-22T04:05:36;4;3;
70436;PMS5003;57877;39.750;-104.894;2022-07-22T04:08:02;4;4;
70436;PMS5003;57877;39.750;-104.894;2022-07-22T04:10:28;4;4;
70436;PMS5003;57877;39.750;-104.894;2022-07-22T04:12:54;5;4;
70436;PMS5003;57877;39.750;-104.894;2022-07-22T04:15:20;4;4;
70436;PMS5003;57877;39.750;-104.894;2022-07-22T04:17:46;4;4;
70436;PMS5003;57877;39.750;-104.894;2022-07-22T04:20:12;4;4;
70436;PMS5003;57877;39.750;-104.894;2022-07-22T04:22:38;3;3;
70436;PMS5003;57877;39.750;-104.894;2022-07-22T04:25:05;5;5;
70436;PMS5003;57877;39.750;-104.894;2022-07-22T04:27:30;5;5;
70436;PMS5003;57877;39.750;-104.894;2022-07-22T04:29:56;4;3;
70436;PMS5003;57877;39.750;-104.894;2022-07-22T04:32:22;3;3;
70436;PMS5003;57877;39.750;-104.894;2022-07-22T04:34:47;4;3;
70436;PMS5003;57877;39.750;-104.894;2022-07-22T04:37:12;5;5;
70436;PMS5003;57877;39.750;-104.894;2022-07-22T04:39:37;4;3;
70436;PMS5003;57877;39.750;-104.894;2022-07-22T04:42:03;2;2;
70436;PMS5003;57877;39.750;-104.894;2022-07-22T04:44:29;3;3;
70436;PMS5003;57877;39.750;-104.894;2022-07-22T04:46:55;3;3;
70436;PMS5003;57877;39.750;-104.894;2022-07-22T04:49:21;3;3;
70436;PMS5003;57877;39.750;-104.894;2022-07-22T04:51:47;2;2;
70436;PMS5003;57877;39.750;-104.894;2022-07-22T04:54:13;3;3;
70436;PMS5003;57877;39.750;-104.894;2022-07-22T04:56:39;2;2;
70436;PMS5003;57877;39.750;-104.894;2022-07-22T04:59:05;4;3;
70436;PMS5003;57877;39.750;-104.894;2022-07-22T05:01:31;3;3;
70436;PMS5003;57877;39.750;-104.894;2022-07-22T05:03:57;4;4;
70436;PMS5003;57877;39.750;-104.894;2022-07-22T05:06:23;2;2;
70436;PMS5003;57877;39.750;-104.894;2022-07-22T05:08:49;2;2;
70436;PMS5003;57877;39.750;-104.894;2022-07-22T05:11:15;2;2;
70436;PMS5003;57877;39.750;-104.894;2022-07-22T05:13:41;1;1;
70436;PMS5003;57877;39.750;-104.894;2022-07-22T05:16:07;2;1;
70436;PMS5003;57877;39.750;-104.894;2022-07-22T05:18:33;2;2;
70436;PMS5003;57877;39.750;-104.894;2022-07-22T05:20:59;1;1;
70436;PMS5003;57877;39.750;-104.894;2022-07-22T05:23:25;2;2;
70436;PMS5003;57877;39.750;-104.894;2022-07-22T05:25:51;0;0;
70436;PMS5003;57877;39.750;-104.894;2022-07-22T05:28:17;1;1;
70436;PMS5003;57877;39.750;-104.894;2022-07-22T05:30:43;0;0;
70436;PMS5003;57877;39.750;-104.894;2022-07-22T05:33:09;1;0;
70436;PMS5003;57877;39.750;-104.894;2022-07-22T05:35:34;1;1;
70436;PMS5003;57877;39.750;-104.894;2022-07-22T05:38:00;2;2;
70436;PMS5003;57877;39.750;-104.894;2022-07-22T05:40:26;3;2;
70436;PMS5003;57877;39.750;-104.894;2022-07-22T05:42:52;2;2;
70436;PMS5003;57877;39.750;-104.894;2022-07-22T05:45:18;2;2;
70436;PMS5003;57877;39.750;-104.894;2022-07-22T05:47:44;2;2;
70436;PMS5003;57877;39.750;-104.894;2022-07-22T05:50:13;2;2;
70436;PMS5003;57877;39.750;-104.894;2022-07-22T05:52:36;1;1;
70436;PMS5003;57877;39.750;-104.894;2022-07-22T05:55:02;2;2;
70436;PMS5003;57877;39.750;-104.894;2022-07-22T05:57:27;1;1;
70436;PMS5003;57877;39.750;-104.894;2022-07-22T05:59:52;3;3;
70436;PMS5003;57877;39.750;-104.894;2022-07-22T06:02:18;1;1;
70436;PMS5003;57877;39.750;-104.894;2022-07-22T06:04:44;1;1;
70436;PMS5003;57877;39.750;-104.894;2022-07-22T06:07:10;0;0;
70436;PMS5003;57877;39.750;-104.894;2022-07-22T06:09:36;2;2;
70436;PMS5003;57877;39.750;-104.894;2022-07-22T06:12:02;1;1;
70436;PMS5003;57877;39.750;-104.894;2022-07-22T06:14:28;0;0;
70436;PMS5003;57877;39.750;-104.894;2022-07-22T06:16:54;2;2;
70436;PMS5003;57877;39.750;-104.894;2022-07-22T06:19:20;1;1;
70436;PMS5003;57877;39.750;-104.894;2022-07-22T06:21:46;1;1;
70436;PMS5003;57877;39.750;-104.894;2022-07-22T06:24:12;2;2;
70436;PMS5003;57877;39.750;-104.894;2022-07-22T06:26:38;0;0;
70436;PMS5003;57877;39.750;-104.894;2022-07-22T06:29:04;0;0;
70436;PMS5003;57877;39.750;-104.894;2022-07-22T06:31:30;1;1;
70436;PMS5003;57877;39.750;-104.894;2022-07-22T06:33:56;0;0;
70436;PMS5003;57877;39.750;-104.894;2022-07-22T06:36:22;0;0;
70436;PMS5003;57877;39.750;-104.894;2022-07-22T06:38:48;0;0;
70436;PMS5003;57877;39.750;-104.894;2022-07-22T06:41:14;0;0;
70436;PMS5003;57877;39.750;-104.894;2022-07-22T06:43:40;0;0;
70436;PMS5003;57877;39.750;-104.894;2022-07-22T06:46:06;2;0;
70436;PMS5003;57877;39.750;-104.894;2022-07-22T06:48:32;0;0;
70436;PMS5003;57877;39.750;-104.894;2022-07-22T06:50:58;0;0;
70436;PMS5003;57877;39.750;-104.894;2022-07-22T06:53:24;0;0;
70436;PMS5003;57877;39.750;-104.894;2022-07-22T06:55:50;0;0;
70436;PMS5003;57877;39.750;-104.894;2022-07-22T06:58:16;0;0;
70436;PMS5003;57877;39.750;-104.894;2022-07-22T07:00:42;2;1;
70436;PMS5003;57877;39.750;-104.894;2022-07-22T07:03:09;0;0;
70436;PMS5003;57877;39.750;-104.894;2022-07-22T07:05:34;2;1;
70436;PMS5003;57877;39.750;-104.894;2022-07-22T07:08:00;1;1;
70436;PMS5003;57877;39.750;-104.894;2022-07-22T07:10:26;2;2;
70436;PMS5003;57877;39.750;-104.894;2022-07-22T07:12:55;0;0;
70436;PMS5003;57877;39.750;-104.894;2022-07-22T07:15:18;1;1;
70436;PMS5003;57877;39.750;-104.894;2022-07-22T07:17:44;2;1;
70436;PMS5003;57877;39.750;-104.894;2022-07-22T07:20:10;0;0;
70436;PMS5003;57877;39.750;-104.894;2022-07-22T07:22:36;2;1;
70436;PMS5003;57877;39.750;-104.894;2022-07-22T07:25:03;1;1;
70436;PMS5003;57877;39.750;-104.894;2022-07-22T07:27:28;1;1;
70436;PMS5003;57877;39.750;-104.894;2022-07-22T07:29:54;0;0;
70436;PMS5003;57877;39.750;-104.894;2022-07-22T07:32:20;1;1;
70436;PMS5003;57877;39.750;-104.894;2022-07-22T07:34:46;1;0;
70436;PMS5003;57877;39.750;-104.894;2022-07-22T07:37:12;0;0;
70436;PMS5003;57877;39.750;-104.894;2022-07-22T07:39:38;2;2;
70436;PMS5003;57877;39.750;-104.894;2022-07-22T07:42:04;0;0;
70436;PMS5003;57877;39.750;-104.894;2022-07-22T07:44:30;0;0;
70436;PMS5003;57877;39.750;-104.894;2022-07-22T07:46:56;0;0;
70436;PMS5003;57877;39.750;-104.894;2022-07-22T07:49:22;0;0;
70436;PMS5003;57877;39.750;-104.894;2022-07-22T07:51:48;0;0;
70436;PMS5003;57877;39.750;-104.894;2022-07-22T07:54:14;1;0;
70436;PMS5003;57877;39.750;-104.894;2022-07-22T07:56:40;0;0;
70436;PMS5003;57877;39.750;-104.894;2022-07-22T07:59:06;3;1;
70436;PMS5003;57877;39.750;-104.894;2022-07-22T08:01:32;0;0;
70436;PMS5003;57877;39.750;-104.894;2022-07-22T08:03:57;0;0;
70436;PMS5003;57877;39.750;-104.894;2022-07-22T08:06:24;1;1;
70436;PMS5003;57877;39.750;-104.894;2022-07-22T08:08:49;0;0;
70436;PMS5003;57877;39.750;-104.894;2022-07-22T08:11:15;1;0;
70436;PMS5003;57877;39.750;-104.894;2022-07-22T08:13:41;0;0;
70436;PMS5003;57877;39.750;-104.894;2022-07-22T08:16:07;1;0;
70436;PMS5003;57877;39.750;-104.894;2022-07-22T08:18:33;0;0;
70436;PMS5003;57877;39.750;-104.894;2022-07-22T08:20:59;0;0;
70436;PMS5003;57877;39.750;-104.894;2022-07-22T08:23:25;0;0;
70436;PMS5003;57877;39.750;-104.894;2022-07-22T08:25:51;0;0;
70436;PMS5003;57877;39.750;-104.894;2022-07-22T08:28:18;1;0;
70436;PMS5003;57877;39.750;-104.894;2022-07-22T08:30:43;1;1;
70436;PMS5003;57877;39.750;-104.894;2022-07-22T08:33:08;1;1;
70436;PMS5003;57877;39.750;-104.894;2022-07-22T08:35:34;1;1;
70436;PMS5003;57877;39.750;-104.894;2022-07-22T08:38:00;2;2;
70436;PMS5003;57877;39.750;-104.894;2022-07-22T08:40:26;1;1;
70436;PMS5003;57877;39.750;-104.894;2022-07-22T08:42:52;1;1;
70436;PMS5003;57877;39.750;-104.894;2022-07-22T08:45:18;2;2;
70436;PMS5003;57877;39.750;-104.894;2022-07-22T08:47:43;1;1;
70436;PMS5003;57877;39.750;-104.894;2022-07-22T08:50:09;0;0;
70436;PMS5003;57877;39.750;-104.894;2022-07-22T08:52:35;0;0;
70436;PMS5003;57877;39.750;-104.894;2022-07-22T08:55:02;2;2;
70436;PMS5003;57877;39.750;-104.894;2022-07-22T08:57:27;0;0;
70436;PMS5003;57877;39.750;-104.894;2022-07-22T08:59:54;0;0;
70436;PMS5003;57877;39.750;-104.894;2022-07-22T09:02:19;0;0;
70436;PMS5003;57877;39.750;-104.894;2022-07-22T09:07:11;1;0;
70436;PMS5003;57877;39.750;-104.894;2022-07-22T09:09:38;0;0;
70436;PMS5003;57877;39.750;-104.894;2022-07-22T09:12:04;1;1;
70436;PMS5003;57877;39.750;-104.894;2022-07-22T09:14:31;1;1;
70436;PMS5003;57877;39.750;-104.894;2022-07-22T09:16:55;1;1;
70436;PMS5003;57877;39.750;-104.894;2022-07-22T09:19:22;0;0;
70436;PMS5003;57877;39.750;-104.894;2022-07-22T09:21:48;0;0;
70436;PMS5003;57877;39.750;-104.894;2022-07-22T09:26:39;0;0;
70436;PMS5003;57877;39.750;-104.894;2022-07-22T09:29:10;3;3;
70436;PMS5003;57877;39.750;-104.894;2022-07-22T09:31:32;2;2;
70436;PMS5003;57877;39.750;-104.894;2022-07-22T09:33:58;0;0;
70436;PMS5003;57877;39.750;-104.894;2022-07-22T09:36:23;0;0;
70436;PMS5003;57877;39.750;-104.894;2022-07-22T09:38:49;2;2;
70436;PMS5003;57877;39.750;-104.894;2022-07-22T09:41:15;1;1;
70436;PMS5003;57877;39.750;-104.894;2022-07-22T09:43:41;2;2;
70436;PMS5003;57877;39.750;-104.894;2022-07-22T09:46:07;2;2;
70436;PMS5003;57877;39.750;-104.894;2022-07-22T09:48:33;1;0;
70436;PMS5003;57877;39.750;-104.894;2022-07-22T09:50:59;3;3;
70436;PMS5003;57877;39.750;-104.894;2022-07-22T09:53:26;1;1;
70436;PMS5003;57877;39.750;-104.894;2022-07-22T09:55:51;4;3;
70436;PMS5003;57877;39.750;-104.894;2022-07-22T09:58:17;2;2;
70436;PMS5003;57877;39.750;-104.894;2022-07-22T10:00:43;1;1;
70436;PMS5003;57877;39.750;-104.894;2022-07-22T10:03:11;1;1;
70436;PMS5003;57877;39.750;-104.894;2022-07-22T10:05:36;1;0;
70436;PMS5003;57877;39.750;-104.894;2022-07-22T10:08:01;1;1;
70436;PMS5003;57877;39.750;-104.894;2022-07-22T10:10:28;3;3;
70436;PMS5003;57877;39.750;-104.894;2022-07-22T10:12:54;3;2;
70436;PMS5003;57877;39.750;-104.894;2022-07-22T10:15:19;3;3;
70436;PMS5003;57877;39.750;-104.894;2022-07-22T10:17:46;1;1;
70436;PMS5003;57877;39.750;-104.894;2022-07-22T10:20:11;3;3;
70436;PMS5003;57877;39.750;-104.894;2022-07-22T10:25:03;1;1;
70436;PMS5003;57877;39.750;-104.894;2022-07-22T10:29:55;2;1;
70436;PMS5003;57877;39.750;-104.894;2022-07-22T10:32:23;3;3;
70436;PMS5003;57877;39.750;-104.894;2022-07-22T10:42:05;1;1;
70436;PMS5003;57877;39.750;-104.894;2022-07-22T10:46:57;2;2;
70436;PMS5003;57877;39.750;-104.894;2022-07-22T10:49:23;2;2;
70436;PMS5003;57877;39.750;-104.894;2022-07-22T10:54:15;0;0;
70436;PMS5003;57877;39.750;-104.894;2022-07-22T10:56:41;1;1;
70436;PMS5003;57877;39.750;-104.894;2022-07-22T10:59:09;3;2;
70436;PMS5003;57877;39.750;-104.894;2022-07-22T11:01:33;0;0;
70436;PMS5003;57877;39.750;-104.894;2022-07-22T11:06:26;1;1;
70436;PMS5003;57877;39.750;-104.894;2022-07-22T11:08:52;2;2;
70436;PMS5003;57877;39.750;-104.894;2022-07-22T11:11:17;0;0;
70436;PMS5003;57877;39.750;-104.894;2022-07-22T11:13:43;3;1;
70436;PMS5003;57877;39.750;-104.894;2022-07-22T11:21:01;2;2;
70436;PMS5003;57877;39.750;-104.894;2022-07-22T11:23:27;1;1;
70436;PMS5003;57877;39.750;-104.894;2022-07-22T11:25:53;1;1;
70436;PMS5003;57877;39.750;-104.894;2022-07-22T11:28:19;2;2;
70436;PMS5003;57877;39.750;-104.894;2022-07-22T11:30:44;1;1;
70436;PMS5003;57877;39.750;-104.894;2022-07-22T11:33:10;1;1;
70436;PMS5003;57877;39.750;-104.894;2022-07-22T11:35:36;1;0;
70436;PMS5003;57877;39.750;-104.894;2022-07-22T11:38:02;2;2;
70436;PMS5003;57877;39.750;-104.894;2022-07-22T11:40:31;2;2;
70436;PMS5003;57877;39.750;-104.894;2022-07-22T11:45:20;2;2;
70436;PMS5003;57877;39.750;-104.894;2022-07-22T11:47:49;2;1;
70436;PMS5003;57877;39.750;-104.894;2022-07-22T11:50:12;1;1;
70436;PMS5003;57877;39.750;-104.894;2022-07-22T11:52:38;0;0;
70436;PMS5003;57877;39.750;-104.894;2022-07-22T11:57:30;1;1;
70436;PMS5003;57877;39.750;-104.894;2022-07-22T12:02:22;1;0;
70436;PMS5003;57877;39.750;-104.894;2022-07-22T12:04:48;0;0;
70436;PMS5003;57877;39.750;-104.894;2022-07-22T12:07:14;0;0;
70436;PMS5003;57877;39.750;-104.894;2022-07-22T12:09:40;0;0;
70436;PMS5003;57877;39.750;-104.894;2022-07-22T12:12:06;2;2;
70436;PMS5003;57877;39.750;-104.894;2022-07-22T12:14:32;2;2;
70436;PMS5003;57877;39.750;-104.894;2022-07-22T12:16:59;1;1;
70436;PMS5003;57877;39.750;-104.894;2022-07-22T12:19:24;1;1;
70436;PMS5003;57877;39.750;-104.894;2022-07-22T12:21:51;2;2;
70436;PMS5003;57877;39.750;-104.894;2022-07-22T12:24:17;1;1;
70436;PMS5003;57877;39.750;-104.894;2022-07-22T12:26:44;4;2;
70436;PMS5003;57877;39.750;-104.894;2022-07-22T12:34:00;0;0;
70436;PMS5003;57877;39.750;-104.894;2022-07-22T12:36:31;1;1;
70436;PMS5003;57877;39.750;-104.894;2022-07-22T12:38:52;0;0;
70436;PMS5003;57877;39.750;-104.894;2022-07-22T12:41:22;1;1;
70436;PMS5003;57877;39.750;-104.894;2022-07-22T12:43:44;1;1;
70436;PMS5003;57877;39.750;-104.894;2022-07-22T12:46:10;0;0;
70436;PMS5003;57877;39.750;-104.894;2022-07-22T12:48:36;1;1;
70436;PMS5003;57877;39.750;-104.894;2022-07-22T12:51:02;3;3;
70436;PMS5003;57877;39.750;-104.894;2022-07-22T12:53:27;2;2;
70436;PMS5003;57877;39.750;-104.894;2022-07-22T12:55:54;1;1;
70436;PMS5003;57877;39.750;-104.894;2022-07-22T12:58:18;0;0;
70436;PMS5003;57877;39.750;-104.894;2022-07-22T13:00:45;1;1;
70436;PMS5003;57877;39.750;-104.894;2022-07-22T13:03:10;1;1;
70436;PMS5003;57877;39.750;-104.894;2022-07-22T13:05:36;2;2;
70436;PMS5003;57877;39.750;-104.894;2022-07-22T13:08:02;2;2;
70436;PMS5003;57877;39.750;-104.894;2022-07-22T13:10:28;1;1;
70436;PMS5003;57877;39.750;-104.894;2022-07-22T13:12:54;2;1;
70436;PMS5003;57877;39.750;-104.894;2022-07-22T13:15:20;1;1;
70436;PMS5003;57877;39.750;-104.894;2022-07-22T13:17:47;1;1;
70436;PMS5003;57877;39.750;-104.894;2022-07-22T13:20:13;2;1;
70436;PMS5003;57877;39.750;-104.894;2022-07-22T13:22:39;2;2;
70436;PMS5003;57877;39.750;-104.894;2022-07-22T13:25:05;1;1;
70436;PMS5003;57877;39.750;-104.894;2022-07-22T13:27:30;0;0;
70436;PMS5003;57877;39.750;-104.894;2022-07-22T13:29:56;1;1;
70436;PMS5003;57877;39.750;-104.894;2022-07-22T13:32:22;1;1;
70436;PMS5003;57877;39.750;-104.894;2022-07-22T13:34:48;2;2;
70436;PMS5003;57877;39.750;-104.894;2022-07-22T13:37:14;2;2;
70436;PMS5003;57877;39.750;-104.894;2022-07-22T13:39:40;1;1;
70436;PMS5003;57877;39.750;-104.894;2022-07-22T13:42:06;1;1;
70436;PMS5003;57877;39.750;-104.894;2022-07-22T13:44:32;2;2;
70436;PMS5003;57877;39.750;-104.894;2022-07-22T13:46:58;3;3;
70436;PMS5003;57877;39.750;-104.894;2022-07-22T13:49:24;1;1;
70436;PMS5003;57877;39.750;-104.894;2022-07-22T13:51:49;2;2;
70436;PMS5003;57877;39.750;-104.894;2022-07-22T13:54:16;1;1;
70436;PMS5003;57877;39.750;-104.894;2022-07-22T13:56:41;1;1;
70436;PMS5003;57877;39.750;-104.894;2022-07-22T13:59:07;2;2;
70436;PMS5003;57877;39.750;-104.894;2022-07-22T14:01:33;1;1;
70436;PMS5003;57877;39.750;-104.894;2022-07-22T14:03:59;0;0;
70436;PMS5003;57877;39.750;-104.894;2022-07-22T14:06:25;0;0;
70436;PMS5003;57877;39.750;-104.894;2022-07-22T14:08:50;1;1;
70436;PMS5003;57877;39.750;-104.894;2022-07-22T14:11:15;2;2;
70436;PMS5003;57877;39.750;-104.894;2022-07-22T14:13:41;1;1;
70436;PMS5003;57877;39.750;-104.894;2022-07-22T14:16:07;2;1;
70436;PMS5003;57877;39.750;-104.894;2022-07-22T14:18:33;1;1;
70436;PMS5003;57877;39.750;-104.894;2022-07-22T14:20:58;4;3;
70436;PMS5003;57877;39.750;-104.894;2022-07-22T14:23:23;2;2;
70436;PMS5003;57877;39.750;-104.894;2022-07-22T14:25:49;2;0;
70436;PMS5003;57877;39.750;-104.894;2022-07-22T14:28:13;2;1;
70436;PMS5003;57877;39.750;-104.894;2022-07-22T14:30:39;0;0;
70436;PMS5003;57877;39.750;-104.894;2022-07-22T14:33:04;1;1;
70436;PMS5003;57877;39.750;-104.894;2022-07-22T14:35:29;0;0;
70436;PMS5003;57877;39.750;-104.894;2022-07-22T14:37:55;2;1;
70436;PMS5003;57877;39.750;-104.894;2022-07-22T14:40:20;1;1;
70436;PMS5003;57877;39.750;-104.894;2022-07-22T14:42:45;1;1;
70436;PMS5003;57877;39.750;-104.894;2022-07-22T14:45:10;1;1;
70436;PMS5003;57877;39.750;-104.894;2022-07-22T14:47:35;1;1;
70436;PMS5003;57877;39.750;-104.894;2022-07-22T14:50:00;1;1;
70436;PMS5003;57877;39.750;-104.894;2022-07-22T14:52:26;2;2;
70436;PMS5003;57877;39.750;-104.894;2022-07-22T14:54:52;1;1;
70436;PMS5003;57877;39.750;-104.894;2022-07-22T14:57:17;2;1;
70436;PMS5003;57877;39.750;-104.894;2022-07-22T14:59:42;2;2;
70436;PMS5003;57877;39.750;-104.894;2022-07-22T15:02:07;2;2;
70436;PMS5003;57877;39.750;-104.894;2022-07-22T15:04:32;1;1;
70436;PMS5003;57877;39.750;-104.894;2022-07-22T15:06:57;1;1;
70436;PMS5003;57877;39.750;-104.894;2022-07-22T15:09:22;0;0;
70436;PMS5003;57877;39.750;-104.894;2022-07-22T15:11:47;1;1;
70436;PMS5003;57877;39.750;-104.894;2022-07-22T15:14:12;3;2;
70436;PMS5003;57877;39.750;-104.894;2022-07-22T15:16:37;1;1;
70436;PMS5003;57877;39.750;-104.894;2022-07-22T15:19:02;3;2;
70436;PMS5003;57877;39.750;-104.894;2022-07-22T15:21:27;4;4;
70436;PMS5003;57877;39.750;-104.894;2022-07-22T15:23:52;2;1;
70436;PMS5003;57877;39.750;-104.894;2022-07-22T15:26:17;2;1;
70436;PMS5003;57877;39.750;-104.894;2022-07-22T15:28:42;1;1;
70436;PMS5003;57877;39.750;-104.894;2022-07-22T15:31:07;2;2;
70436;PMS5003;57877;39.750;-104.894;2022-07-22T15:33:33;2;2;
70436;PMS5003;57877;39.750;-104.894;2022-07-22T15:35:58;3;3;
70436;PMS5003;57877;39.750;-104.894;2022-07-22T15:38:23;2;2;
70436;PMS5003;57877;39.750;-104.894;2022-07-22T15:40:48;2;2;
70436;PMS5003;57877;39.750;-104.894;2022-07-22T15:43:13;2;2;
70436;PMS5003;57877;39.750;-104.894;2022-07-22T15:45:38;3;3;
70436;PMS5003;57877;39.750;-104.894;2022-07-22T15:48:03;3;3;
70436;PMS5003;57877;39.750;-104.894;2022-07-22T15:50:28;2;2;
70436;PMS5003;57877;39.750;-104.894;2022-07-22T15:52:53;4;4;
70436;PMS5003;57877;39.750;-104.894;2022-07-22T15:55:19;1;1;
70436;PMS5003;57877;39.750;-104.894;2022-07-22T15:57:44;3;3;
70436;PMS5003;57877;39.750;-104.894;2022-07-22T16:00:09;3;3;
70436;PMS5003;57877;39.750;-104.894;2022-07-22T16:02:34;1;1;
70436;PMS5003;57877;39.750;-104.894;2022-07-22T16:04:59;2;2;
70436;PMS5003;57877;39.750;-104.894;2022-07-22T16:07:24;2;2;
70436;PMS5003;57877;39.750;-104.894;2022-07-22T16:09:49;2;2;
70436;PMS5003;57877;39.750;-104.894;2022-07-22T16:12:15;3;3;
70436;PMS5003;57877;39.750;-104.894;2022-07-22T16:14:40;2;2;
70436;PMS5003;57877;39.750;-104.894;2022-07-22T16:17:05;3;3;
70436;PMS5003;57877;39.750;-104.894;2022-07-22T16:19:30;3;3;
70436;PMS5003;57877;39.750;-104.894;2022-07-22T16:21:55;3;3;
70436;PMS5003;57877;39.750;-104.894;2022-07-22T16:24:21;2;2;
70436;PMS5003;57877;39.750;-104.894;2022-07-22T16:26:46;1;1;
70436;PMS5003;57877;39.750;-104.894;2022-07-22T16:29:11;3;3;
70436;PMS5003;57877;39.750;-104.894;2022-07-22T16:31:36;3;3;